Time;durP1;ratioP1;P1;durP2;ratioP2;P2;SDS_P1;SDS_P2;PMS_P1;PMS_P2;Temp;Humidity;BMP_temperature;BMP_pressure;BME280_temperature;BME280_humidity;BME280_pressure;Samples;Min_cycle;Max_cycle;Signal;HPM_P1;HPM_P2
2022/04/26 03:37:05;;;;;;;17.77;12.13;;;12.20;99.90;;;;;;7386892;19;20158;-78
2022/04/26 03:39:32;;;;;;;18.33;12.43;;;12.20;99.90;;;;;;7386541;19;20163;-79
2022/04/26 03:41:59;;;;;;;17.67;13.10;;;12.20;99.90;;;;;;7386761;19;20142;-75
2022/04/26 03:44:25;;;;;;;15.67;12.07;;;12.20;99.90;;;;;;7391675;19;20127;-79
2022/04/26 03:46:51;;;;;;;16.97;11.70;;;12.20;99.90;;;;;;7387223;19;20150;-79
2022/04/26 03:49:17;;;;;;;18.37;12.90;;;12.20;99.90;;;;;;7386639;19;20146;-75
2022/04/26 03:51:42;;;;;;;18.53;12.67;;;12.20;99.90;;;;;;7387807;19;20548;-79
2022/04/26 03:54:08;;;;;;;18.83;13.47;;;12.10;99.90;;;;;;7392867;19;20142;-75
2022/04/26 03:56:34;;;;;;;18.10;12.80;;;12.10;99.90;;;;;;7388009;19;20130;-75
2022/04/26 03:59:00;;;;;;;15.40;11.40;;;12.00;99.90;;;;;;7387216;19;20130;-79
2022/04/26 04:01:25;;;;;;;15.60;11.37;;;12.10;99.90;;;;;;7384765;19;20160;-74
2022/04/26 04:03:51;;;;;;;13.10;9.70;;;12.20;99.90;;;;;;7386356;19;20158;-74
2022/04/26 04:06:17;;;;;;;10.70;9.23;;;12.10;99.90;;;;;;7386839;19;20149;-74
2022/04/26 04:08:43;;;;;;;11.13;8.77;;;12.00;99.90;;;;;;7386947;19;20142;-76
2022/04/26 04:11:08;;;;;;;9.57;7.20;;;12.10;99.90;;;;;;7385235;19;20123;-75
2022/04/26 04:13:34;;;;;;;10.23;7.17;;;12.10;99.90;;;;;;7387302;19;20137;-76
2022/04/26 04:16:01;;;;;;;11.20;7.87;;;12.10;99.90;;;;;;7390226;19;20125;-75
2022/04/26 04:21:11;;;;;;;11.63;8.60;;;12.00;99.90;;;;;;7384669;19;20480;-75
2022/04/26 04:23:38;;;;;;;11.53;8.70;;;12.10;99.90;;;;;;7385807;19;20142;-74
2022/04/26 04:26:04;;;;;;;11.90;7.97;;;12.10;99.90;;;;;;7386365;19;20628;-75
2022/04/26 04:28:32;;;;;;;11.40;8.13;;;12.10;99.90;;;;;;7384517;19;20166;-76
2022/04/26 04:30:59;;;;;;;10.30;8.07;;;12.10;99.90;;;;;;7386041;19;20264;-78
2022/04/26 04:33:25;;;;;;;10.27;8.27;;;12.00;99.90;;;;;;7386394;19;20164;-79
2022/04/26 04:35:50;;;;;;;9.97;7.53;;;12.00;99.90;;;;;;7385445;19;20628;-75
2022/04/26 04:38:16;;;;;;;11.43;8.20;;;12.10;99.90;;;;;;7388941;19;20150;-76
2022/04/26 04:40:43;;;;;;;10.97;8.53;;;12.10;99.90;;;;;;7384623;19;20159;-78
2022/04/26 04:43:11;;;;;;;10.00;7.80;;;12.20;99.90;;;;;;7385135;19;20149;-79
2022/04/26 04:45:38;;;;;;;9.83;7.57;;;12.10;99.90;;;;;;7384218;19;20512;-78
2022/04/26 04:48:05;;;;;;;9.93;8.20;;;12.10;99.90;;;;;;7385793;19;20149;-79
2022/04/26 04:50:34;;;;;;;11.33;8.00;;;12.10;99.90;;;;;;7385477;19;20150;-80
2022/04/26 04:53:00;;;;;;;9.30;8.13;;;12.10;99.90;;;;;;7387264;19;20797;-80
2022/04/26 04:55:27;;;;;;;11.30;7.80;;;12.10;99.90;;;;;;7385185;19;20138;-79
2022/04/26 04:57:53;;;;;;;11.93;8.43;;;11.70;99.90;;;;;;7386665;19;20154;-76
2022/04/26 05:00:19;;;;;;;10.40;8.23;;;11.80;99.90;;;;;;7387825;19;20169;-79
2022/04/26 05:02:45;;;;;;;9.47;7.73;;;11.90;99.90;;;;;;7399090;19;20135;-78
2022/04/26 05:05:12;;;;;;;9.10;7.20;;;12.00;99.90;;;;;;7384805;19;20139;-76
2022/04/26 05:07:38;;;;;;;10.23;8.30;;;12.10;99.90;;;;;;7384814;19;20131;-76
2022/04/26 05:10:06;;;;;;;10.27;8.37;;;12.10;99.90;;;;;;7388374;19;20142;-77
2022/04/26 05:12:33;;;;;;;10.20;8.27;;;12.10;99.90;;;;;;7387919;19;20161;-79
2022/04/26 05:14:59;;;;;;;10.63;8.10;;;12.00;99.90;;;;;;7390218;19;20152;-79
2022/04/26 05:17:28;;;;;;;10.97;8.33;;;12.00;99.90;;;;;;7388690;19;20169;-77
2022/04/26 05:19:55;;;;;;;11.50;8.77;;;12.00;99.90;;;;;;7386510;19;20617;-78
2022/04/26 05:22:21;;;;;;;12.23;9.57;;;12.10;99.90;;;;;;7391450;19;20135;-75
2022/04/26 05:24:58;;;;;;;12.50;9.40;;;12.10;99.90;;;;;;7385262;19;20579;-79
2022/04/26 05:27:31;;;;;;;12.03;9.33;;;11.90;99.90;;;;;;7384826;19;20142;-75
2022/04/26 05:29:58;;;;;;;13.87;10.30;;;12.00;99.90;;;;;;7382580;19;20148;-77
2022/04/26 05:32:28;;;;;;;12.57;10.03;;;12.10;99.90;;;;;;7387460;19;20662;-79
2022/04/26 05:34:59;;;;;;;10.80;8.90;;;12.20;99.90;;;;;;7388927;19;20198;-79
2022/04/26 05:37:25;;;;;;;12.60;9.33;;;12.30;99.90;;;;;;7389321;19;20135;-76
2022/04/26 05:39:52;;;;;;;12.93;9.70;;;12.20;99.90;;;;;;7390742;19;20135;-75
2022/04/26 05:42:17;;;;;;;11.97;9.77;;;12.20;99.90;;;;;;7393558;19;20150;-75
2022/04/26 05:44:43;;;;;;;11.53;9.70;;;12.20;99.90;;;;;;7399082;19;20506;-76
2022/04/26 05:47:09;;;;;;;12.70;9.43;;;12.30;99.90;;;;;;7399288;19;20598;-75
2022/04/26 05:49:36;;;;;;;13.23;10.03;;;12.30;99.90;;;;;;7395167;19;20195;-82
2022/04/26 05:52:03;;;;;;;11.43;9.03;;;12.40;99.90;;;;;;7393283;19;20145;-79
2022/04/26 05:54:29;;;;;;;15.43;10.53;;;12.30;99.90;;;;;;7391443;19;20502;-74
2022/04/26 05:56:55;;;;;;;13.17;9.53;;;12.30;99.90;;;;;;7392532;19;20127;-80
2022/04/26 05:59:21;;;;;;;13.47;10.17;;;12.20;99.90;;;;;;7396988;19;20178;-75
2022/04/26 06:01:49;;;;;;;12.53;9.07;;;12.20;99.90;;;;;;7390408;19;20126;-77
2022/04/26 06:04:15;;;;;;;13.40;9.57;;;12.20;99.90;;;;;;7390109;19;20127;-76
2022/04/26 06:06:41;;;;;;;13.10;9.53;;;12.20;99.90;;;;;;7394126;19;20612;-74
2022/04/26 06:09:07;;;;;;;12.83;10.03;;;12.20;99.90;;;;;;7396143;19;20579;-75
2022/04/26 06:11:33;;;;;;;12.53;9.73;;;12.30;99.90;;;;;;7390399;19;20157;-75
2022/04/26 06:14:00;;;;;;;12.07;8.53;;;12.30;99.90;;;;;;7393734;19;20687;-76
2022/04/26 06:16:26;;;;;;;11.30;8.77;;;12.40;99.90;;;;;;7392153;19;20206;-76
2022/04/26 06:18:52;;;;;;;14.67;9.87;;;12.10;99.90;;;;;;7394760;19;20122;-74
2022/04/26 06:21:17;;;;;;;11.73;9.00;;;12.10;99.90;;;;;;7392715;19;20143;-73
2022/04/26 06:23:43;;;;;;;13.10;9.60;;;12.10;99.90;;;;;;7392856;19;20139;-73
2022/04/26 06:26:09;;;;;;;13.60;9.77;;;12.20;99.90;;;;;;7394661;19;20127;-77
2022/04/26 06:28:35;;;;;;;13.33;10.10;;;12.30;99.90;;;;;;7398720;19;20147;-76
2022/04/26 06:31:02;;;;;;;12.10;8.50;;;12.40;99.90;;;;;;7393512;19;20138;-74
2022/04/26 06:33:28;;;;;;;12.47;10.60;;;12.40;99.90;;;;;;7392120;19;20163;-75
2022/04/26 06:35:54;;;;;;;12.97;9.63;;;12.40;99.90;;;;;;7391780;19;20147;-75
2022/04/26 06:38:22;;;;;;;11.93;9.20;;;12.30;99.90;;;;;;7391241;19;20234;-76
2022/04/26 06:40:48;;;;;;;11.87;9.43;;;12.50;99.90;;;;;;7391391;19;20157;-77
2022/04/26 06:43:14;;;;;;;13.30;10.03;;;12.40;99.90;;;;;;7391992;19;20163;-75
2022/04/26 06:45:40;;;;;;;15.53;10.97;;;12.40;99.90;;;;;;7393510;19;20131;-77
2022/04/26 06:48:09;;;;;;;14.97;10.67;;;12.40;99.90;;;;;;7389174;19;20145;-75
2022/04/26 06:50:35;;;;;;;13.23;10.37;;;12.30;99.90;;;;;;7396645;19;20142;-76
2022/04/26 06:53:01;;;;;;;12.30;9.83;;;12.40;99.90;;;;;;7391424;19;20156;-76
2022/04/26 06:55:26;;;;;;;15.50;10.67;;;12.40;99.90;;;;;;7397829;19;20139;-76
2022/04/26 06:57:52;;;;;;;13.47;9.43;;;12.30;99.90;;;;;;7390066;19;20151;-73
2022/04/26 07:00:18;;;;;;;14.27;9.87;;;12.40;99.90;;;;;;7389748;19;20160;-74
2022/04/26 07:02:45;;;;;;;13.07;9.63;;;12.40;99.90;;;;;;7389609;19;20131;-75
2022/04/26 07:05:13;;;;;;;10.37;8.40;;;12.50;99.90;;;;;;7390534;19;20625;-73
2022/04/26 07:07:39;;;;;;;11.17;7.93;;;12.40;99.90;;;;;;7390003;19;20168;-77
2022/04/26 07:10:06;;;;;;;10.60;8.30;;;12.50;99.90;;;;;;7391909;19;20621;-77
2022/04/26 07:12:32;;;;;;;9.90;8.00;;;12.50;99.90;;;;;;7393556;19;20209;-76
2022/04/26 07:14:58;;;;;;;8.80;7.27;;;12.50;99.90;;;;;;7397518;19;20147;-76
2022/04/26 07:17:24;;;;;;;11.40;7.80;;;12.40;99.90;;;;;;7389847;19;20175;-77
2022/04/26 07:19:50;;;;;;;8.03;5.70;;;12.40;99.90;;;;;;7387227;19;20864;-74
2022/04/26 07:22:16;;;;;;;8.60;7.13;;;12.50;99.90;;;;;;7385200;19;20398;-76
2022/04/26 07:24:43;;;;;;;7.27;6.00;;;12.50;99.90;;;;;;7389851;19;20790;-75
2022/04/26 07:27:11;;;;;;;6.57;5.80;;;12.50;99.90;;;;;;7392007;19;20139;-75
2022/04/26 07:29:41;;;;;;;6.90;5.70;;;12.50;99.90;;;;;;7385406;19;20174;-75
2022/04/26 07:32:10;;;;;;;6.27;5.60;;;12.60;99.90;;;;;;7390572;19;20166;-71
2022/04/26 07:34:36;;;;;;;7.67;5.53;;;12.80;99.90;;;;;;7387811;19;20135;-73
2022/04/26 07:37:02;;;;;;;8.50;5.40;;;12.90;99.90;;;;;;7390643;19;20158;-72
2022/04/26 07:39:35;;;;;;;5.03;4.47;;;13.00;99.90;;;;;;7386595;19;20139;-74
2022/04/26 07:42:02;;;;;;;8.20;5.93;;;13.10;99.90;;;;;;7384853;19;20141;-74
2022/04/26 07:44:33;;;;;;;7.10;5.33;;;13.00;99.90;;;;;;7386830;19;20638;-73
2022/04/26 07:46:59;;;;;;;8.90;5.80;;;13.00;99.90;;;;;;7387246;19;20203;-71
2022/04/26 07:49:27;;;;;;;6.20;5.43;;;13.00;99.90;;;;;;7387126;19;20157;-71
2022/04/26 07:51:54;;;;;;;6.57;5.70;;;13.00;99.90;;;;;;7387370;19;20202;-70
2022/04/26 07:54:20;;;;;;;6.27;5.27;;;13.10;99.90;;;;;;7392177;19;20491;-71
2022/04/26 07:56:49;;;;;;;7.00;5.70;;;13.10;99.90;;;;;;7388814;19;20135;-71
2022/04/26 07:59:17;;;;;;;7.03;6.20;;;13.00;99.90;;;;;;7386681;19;20407;-72
2022/04/26 08:01:43;;;;;;;6.97;5.60;;;13.00;99.90;;;;;;7387254;19;20162;-74
2022/04/26 08:04:09;;;;;;;6.47;5.03;;;13.00;99.90;;;;;;7386481;19;20137;-75
2022/04/26 08:06:34;;;;;;;6.70;5.60;;;13.00;99.90;;;;;;7389052;19;20158;-74
2022/04/26 08:09:00;;;;;;;7.07;6.07;;;13.00;99.90;;;;;;7386859;19;20174;-76
2022/04/26 08:11:28;;;;;;;6.63;5.57;;;13.00;99.90;;;;;;7391923;19;20151;-73
2022/04/26 08:13:55;;;;;;;9.87;7.63;;;13.10;99.90;;;;;;7394361;19;20497;-72
2022/04/26 08:16:21;;;;;;;8.23;6.63;;;13.10;99.90;;;;;;7389086;19;20146;-75
2022/04/26 08:18:46;;;;;;;9.87;6.03;;;13.00;99.90;;;;;;7395607;19;20165;-73
2022/04/26 08:21:16;;;;;;;6.90;5.47;;;13.00;99.90;;;;;;7387297;19;20245;-73
2022/04/26 08:29:16;;;;;;;6.23;5.20;;;12.80;99.90;;;;;;7387184;19;20191;-77
2022/04/26 08:31:42;;;;;;;7.13;5.30;;;12.90;99.90;;;;;;7389080;19;20605;-77
2022/04/26 08:34:10;;;;;;;6.33;5.63;;;12.90;99.90;;;;;;7389918;19;20177;-73
2022/04/26 08:36:35;;;;;;;7.40;6.07;;;12.90;99.90;;;;;;7391967;19;20198;-73
2022/04/26 08:39:02;;;;;;;6.20;5.03;;;13.10;99.90;;;;;;7397997;19;20127;-74
2022/04/26 08:41:29;;;;;;;6.53;5.53;;;13.20;99.90;;;;;;7386517;19;20230;-73
2022/04/26 08:43:55;;;;;;;4.90;4.40;;;13.40;99.90;;;;;;7388637;19;20150;-76
2022/04/26 08:46:21;;;;;;;8.75;5.60;;;13.60;99.90;;;;;;7387801;19;20429;-76
2022/04/26 08:51:33;;;;;;;7.33;5.67;;;13.80;99.90;;;;;;7389510;19;20505;-73
2022/04/26 08:53:58;;;;;;;6.77;5.70;;;13.90;99.90;;;;;;7394880;19;20500;-74
2022/04/26 08:56:24;;;;;;;8.50;5.47;;;13.90;99.90;;;;;;7389285;19;20126;-73
2022/04/26 08:58:51;;;;;;;6.68;5.32;;;13.80;99.90;;;;;;7391017;19;20154;-78
2022/04/26 09:01:24;;;;;;;8.10;5.20;;;13.90;99.90;;;;;;7385674;19;20506;-74
2022/04/26 09:03:56;;;;;;;5.50;4.80;;;13.60;99.90;;;;;;7388041;19;20130;-74
2022/04/26 09:06:39;;;;;;;6.73;5.60;;;13.60;99.90;;;;;;7386237;19;20186;-79
2022/04/26 09:09:29;;;;;;;6.67;5.17;;;13.70;99.90;;;;;;7385687;19;20161;-78
2022/04/26 09:11:59;;;;;;;6.87;4.87;;;13.80;99.90;;;;;;7387659;19;20134;-72
2022/04/26 09:14:34;;;;;;;6.80;5.60;;;13.50;99.90;;;;;;7390083;19;20135;-79
2022/04/26 09:17:04;;;;;;;6.90;5.50;;;13.70;99.90;;;;;;7393655;19;20130;-74
2022/04/26 09:19:46;;;;;;;6.93;5.40;;;13.80;99.90;;;;;;7396695;19;20186;-73
2022/04/26 09:22:18;;;;;;;8.27;5.77;;;13.70;99.90;;;;;;7396031;19;20137;-81
2022/04/26 09:25:14;;;;;;;8.53;4.73;;;13.60;99.90;;;;;;7391517;19;20230;-78
2022/04/26 09:27:42;;;;;;;6.60;4.90;;;13.80;99.90;;;;;;7392420;19;20614;-73
2022/04/26 09:30:12;;;;;;;5.00;4.40;;;13.70;99.90;;;;;;7391187;19;20654;-79
2022/04/26 09:32:46;;;;;;;5.63;4.50;;;13.80;99.90;;;;;;7394436;19;20505;-80
2022/04/26 09:35:29;;;;;;;7.97;5.17;;;13.90;99.90;;;;;;7395028;19;20161;-78
2022/04/26 09:37:55;;;;;;;6.63;5.13;;;14.00;99.90;;;;;;7395119;19;20147;-75
2022/04/26 09:40:21;;;;;;;5.28;4.18;;;14.00;99.90;;;;;;7397870;19;20146;-75
2022/04/26 09:42:50;;;;;;;5.17;4.33;;;14.10;99.90;;;;;;7403956;19;20135;-79
2022/04/26 09:45:16;;;;;;;5.43;4.37;;;14.40;99.90;;;;;;7397968;19;20647;-74
2022/04/26 09:47:44;;;;;;;5.38;3.70;;;14.40;99.90;;;;;;7392862;19;20130;-81
2022/04/26 09:50:14;;;;;;;5.50;3.57;;;14.40;99.90;;;;;;7394577;19;20234;-73
2022/04/26 09:52:41;;;;;;;4.93;3.60;;;14.50;99.90;;;;;;7394682;19;20155;-79
2022/04/26 09:55:10;;;;;;;5.37;4.00;;;14.40;99.90;;;;;;7393513;19;20134;-74
2022/04/26 09:57:37;;;;;;;5.07;4.25;;;14.40;99.90;;;;;;7393786;19;20150;-79
2022/04/26 10:00:10;;;;;;;6.60;4.73;;;14.50;99.90;;;;;;7394258;19;20147;-75
2022/04/26 10:02:39;;;;;;;8.57;6.25;;;14.70;99.90;;;;;;7398119;19;20594;-80
2022/04/26 10:05:06;;;;;;;5.00;3.88;;;14.70;99.90;;;;;;7402863;19;20163;-79
2022/04/26 10:07:36;;;;;;;4.00;3.55;;;14.90;99.90;;;;;;7392703;19;20150;-80
2022/04/26 10:10:04;;;;;;;4.73;3.30;;;15.10;99.90;;;;;;7393154;19;20161;-72
2022/04/26 10:12:32;;;;;;;5.43;3.40;;;15.00;99.90;;;;;;7395487;19;20211;-74
2022/04/26 10:14:59;;;;;;;4.10;3.10;;;14.80;99.90;;;;;;7393264;19;20135;-78
2022/04/26 10:17:26;;;;;;;4.80;3.13;;;14.70;99.90;;;;;;7387639;19;20149;-80
2022/04/26 10:19:52;;;;;;;4.93;3.53;;;14.60;99.90;;;;;;7393557;19;20172;-79
2022/04/26 10:22:50;;;;;;;5.33;3.17;;;14.60;99.90;;;;;;7386730;19;20707;-78
2022/04/26 10:25:17;;;;;;;3.83;3.20;;;14.70;99.90;;;;;;7389950;19;20206;-75
2022/04/26 10:27:43;;;;;;;4.07;3.63;;;14.70;99.90;;;;;;7394026;19;20149;-77
2022/04/26 10:30:09;;;;;;;3.87;3.20;;;14.70;99.90;;;;;;7391079;19;20206;-79
2022/04/26 10:32:38;;;;;;;3.47;2.60;;;14.90;99.90;;;;;;7392175;19;20141;-77
2022/04/26 10:35:23;;;;;;;2.90;2.50;;;14.90;99.90;;;;;;7388533;19;20150;-74
2022/04/26 10:38:11;;;;;;;6.93;4.63;;;14.80;99.90;;;;;;7387742;19;20142;-80
2022/04/26 10:41:07;;;;;;;4.95;3.67;;;15.00;99.90;;;;;;7388286;19;20147;-79
2022/04/26 10:43:33;;;;;;;4.00;2.30;;;15.30;99.90;;;;;;7392467;19;20146;-74
2022/04/26 10:46:10;;;;;;;3.63;2.67;;;15.50;99.90;;;;;;7387757;19;20601;-78
2022/04/26 10:48:36;;;;;;;4.50;2.83;;;15.50;99.90;;;;;;7395579;19;20142;-76
2022/04/26 10:51:34;;;;;;;4.00;2.75;;;15.40;99.90;;;;;;7390971;19;20146;-79
2022/04/26 10:54:04;;;;;;;3.10;2.53;;;15.30;99.90;;;;;;7391674;19;20146;-76
2022/04/26 10:56:33;;;;;;;4.07;2.58;;;15.50;99.90;;;;;;7389849;19;20207;-73
2022/04/26 10:58:59;;;;;;;4.22;2.70;;;15.70;99.90;;;;;;7390988;19;20617;-77
2022/04/26 11:01:27;;;;;;;3.22;2.80;;;15.70;99.90;;;;;;7382801;19;20171;-74
2022/04/26 11:03:55;;;;;;;4.85;2.35;;;15.80;99.90;;;;;;7392588;19;20138;-74
2022/04/26 11:06:34;;;;;;;4.57;2.17;;;15.70;99.90;;;;;;7393758;19;20147;-78
2022/04/26 11:09:20;;;;;;;3.60;2.00;;;15.90;99.90;;;;;;7401496;19;20142;-74
2022/04/26 11:11:55;;;;;;;6.22;2.40;;;15.70;99.90;;;;;;7391433;19;20588;-74
2022/04/26 11:14:22;;;;;;;2.13;1.85;;;15.50;99.90;;;;;;7388284;19;20142;-73
2022/04/26 11:17:02;;;;;;;3.88;2.42;;;15.50;99.90;;;;;;7393129;19;20198;-81
2022/04/26 11:19:36;;;;;;;3.60;2.80;;;15.50;99.90;;;;;;7395591;19;20150;-79
2022/04/26 11:22:06;;;;;;;6.97;4.38;;;15.50;99.90;;;;;;7385408;19;20325;-73
2022/04/26 11:30:05;;;;;;;4.93;4.32;;;14.60;99.90;;;;;;7397916;19;20182;-79
2022/04/26 11:32:42;;;;;;;5.35;4.35;;;14.40;99.90;;;;;;7400076;19;20153;-76
2022/04/26 11:35:09;;;;;;;4.20;3.60;;;14.40;99.90;;;;;;7390423;19;20225;-79
2022/04/26 11:37:46;;;;;;;5.78;4.00;;;14.30;99.90;;;;;;7386855;19;20147;-74
2022/04/26 11:40:27;;;;;;;4.05;3.58;;;14.30;99.90;;;;;;7391459;19;20584;-74
2022/04/26 11:42:58;;;;;;;5.63;3.80;;;14.50;99.90;;;;;;7391871;19;20597;-81
2022/04/26 11:45:30;;;;;;;4.20;3.80;;;14.90;99.90;;;;;;7387087;19;20154;-79
2022/04/26 11:47:57;;;;;;;4.45;3.83;;;14.90;99.90;;;;;;7386776;19;20174;-73
2022/04/26 11:50:25;;;;;;;4.30;3.90;;;14.50;99.90;;;;;;7386375;19;20142;-72
2022/04/26 11:52:58;;;;;;;6.13;3.80;;;14.20;99.90;;;;;;7387499;19;20602;-73
2022/04/26 11:55:33;;;;;;;5.50;3.50;;;14.00;99.90;;;;;;7399533;19;20169;-74
2022/04/26 11:58:15;;;;;;;5.63;3.40;;;14.00;99.90;;;;;;7390785;19;20138;-78
2022/04/26 12:00:57;;;;;;;5.17;3.70;;;14.00;99.90;;;;;;7388125;19;20154;-80
2022/04/26 12:03:25;;;;;;;3.97;3.25;;;13.80;99.90;;;;;;7386275;19;20126;-74
2022/04/26 12:06:13;;;;;;;4.43;3.37;;;13.90;99.90;;;;;;7386041;19;20168;-81
2022/04/26 12:08:44;;;;;;;3.97;2.87;;;14.00;99.90;;;;;;7387403;19;20142;-74
2022/04/26 12:11:24;;;;;;;3.43;2.73;;;14.10;99.90;;;;;;7387568;19;20210;-72
2022/04/26 12:14:13;;;;;;;3.40;2.60;;;14.10;99.90;;;;;;7392753;19;20130;-73
2022/04/26 12:16:44;;;;;;;2.95;2.63;;;14.30;99.90;;;;;;7396970;19;20139;-79
2022/04/26 12:19:11;;;;;;;5.37;3.40;;;14.30;99.90;;;;;;7393479;19;20147;-80
2022/04/26 12:21:47;;;;;;;2.58;2.38;;;14.50;99.90;;;;;;7389512;19;20138;-71
2022/04/26 12:24:14;;;;;;;4.43;3.20;;;14.60;99.90;;;;;;7386820;19;20199;-71
2022/04/26 12:26:55;;;;;;;3.03;2.72;;;14.60;99.90;;;;;;7385078;19;20130;-72
2022/04/26 12:29:26;;;;;;;3.17;2.80;;;14.50;99.90;;;;;;7386559;19;20175;-80
2022/04/26 12:31:52;;;;;;;4.72;2.80;;;14.60;99.90;;;;;;7385184;19;20147;-76
2022/04/26 12:34:21;;;;;;;3.10;2.78;;;14.40;99.90;;;;;;7386108;19;20142;-78
2022/04/26 12:37:15;;;;;;;6.50;4.17;;;14.40;99.90;;;;;;7381467;19;20134;-78
2022/04/26 12:39:41;;;;;;;5.93;3.60;;;14.20;99.90;;;;;;7408730;19;20122;-79
2022/04/26 12:42:12;;;;;;;4.53;3.80;;;14.00;99.90;;;;;;7384804;19;20198;-78
2022/04/26 12:44:52;;;;;;;3.37;2.60;;;14.00;99.90;;;;;;7385332;19;20657;-73
2022/04/26 12:50:29;;;;;;;2.47;2.20;;;13.70;99.90;;;;;;7390770;19;20173;-78
2022/04/26 12:52:59;;;;;;;1.53;1.37;;;13.60;99.90;;;;;;7392530;19;20138;-78
2022/04/26 12:55:38;;;;;;;2.40;1.67;;;13.40;99.90;;;;;;7393487;19;20138;-77
2022/04/26 12:58:12;;;;;;;2.67;1.63;;;13.10;99.90;;;;;;7393672;19;20147;-74
2022/04/26 13:00:53;;;;;;;2.13;1.63;;;12.80;99.90;;;;;;7394130;19;20417;-74
2022/04/26 13:03:21;;;;;;;2.50;1.70;;;12.90;99.90;;;;;;7394715;19;20737;-75
2022/04/26 13:05:54;;;;;;;2.20;1.70;;;12.80;99.90;;;;;;7393505;19;20138;-78
2022/04/26 13:08:21;;;;;;;1.87;1.60;;;12.70;99.90;;;;;;7392217;19;20150;-76
2022/04/26 13:10:48;;;;;;;1.90;1.70;;;12.70;99.90;;;;;;7393451;19;20161;-76
2022/04/26 13:13:15;;;;;;;2.17;1.60;;;12.70;99.90;;;;;;7392054;19;20181;-74
2022/04/26 13:15:41;;;;;;;2.10;1.77;;;12.90;99.90;;;;;;7391403;19;20743;-77
2022/04/26 13:18:10;;;;;;;2.50;1.80;;;12.90;99.90;;;;;;7393304;19;20134;-77
2022/04/26 13:20:36;;;;;;;2.40;1.97;;;13.00;99.90;;;;;;7388560;19;20155;-74
2022/04/26 13:23:02;;;;;;;2.20;1.73;;;13.20;99.90;;;;;;7392992;19;20139;-74
2022/04/26 13:25:28;;;;;;;2.63;1.50;;;13.10;99.90;;;;;;7401777;19;20141;-75
2022/04/26 13:27:54;;;;;;;2.00;1.80;;;13.30;99.90;;;;;;7393752;19;20594;-79
2022/04/26 13:30:20;;;;;;;5.50;2.00;;;13.60;99.90;;;;;;7388734;19;20139;-78
2022/04/26 13:32:46;;;;;;;2.13;1.80;;;14.00;99.90;;;;;;7393739;19;20585;-78
2022/04/26 13:35:12;;;;;;;1.92;1.50;;;14.30;99.90;;;;;;7392105;19;20145;-73
2022/04/26 13:37:39;;;;;;;1.57;1.17;;;14.50;99.90;;;;;;7392648;19;20151;-74
2022/04/26 13:40:06;;;;;;;2.13;1.30;;;14.40;99.90;;;;;;7391171;19;20497;-75
2022/04/26 13:42:35;;;;;;;1.90;1.43;;;14.20;99.90;;;;;;7390138;19;20133;-73
2022/04/26 13:45:02;;;;;;;2.03;1.83;;;14.30;99.90;;;;;;7389317;19;20494;-75
2022/04/26 13:47:29;;;;;;;3.80;1.50;;;14.50;99.90;;;;;;7391439;19;20138;-77
2022/04/26 13:49:55;;;;;;;2.10;1.57;;;14.60;99.90;;;;;;7391237;19;20156;-78
2022/04/26 13:52:22;;;;;;;3.73;1.70;;;14.80;99.90;;;;;;7389952;19;20134;-76
2022/04/26 13:54:48;;;;;;;1.40;1.30;;;14.80;99.90;;;;;;7391018;19;20587;-74
2022/04/26 13:57:16;;;;;;;2.00;1.63;;;14.70;99.90;;;;;;7391322;19;20138;-74
2022/04/26 13:59:43;;;;;;;1.55;1.30;;;14.40;99.90;;;;;;7390634;19;20150;-75
2022/04/26 14:02:10;;;;;;;1.65;1.30;;;14.40;99.90;;;;;;7390389;19;20161;-75
2022/04/26 14:04:35;;;;;;;3.92;1.50;;;14.00;99.90;;;;;;7393787;19;20146;-74
2022/04/26 14:07:02;;;;;;;1.77;1.30;;;14.10;99.90;;;;;;7393315;19;20431;-80
2022/04/26 14:09:28;;;;;;;1.67;1.30;;;14.20;99.90;;;;;;7396131;19;20147;-78
2022/04/26 14:11:55;;;;;;;3.20;1.30;;;14.30;99.90;;;;;;7389197;19;20135;-78
2022/04/26 14:22:37;;;;;;;1.60;1.30;;;14.30;99.90;;;;;;7394836;19;20159;-74
2022/04/26 14:25:08;;;;;;;1.90;1.70;;;14.20;99.90;;;;;;7389193;19;20134;-81
2022/04/26 14:27:36;;;;;;;1.83;1.57;;;14.00;99.90;;;;;;7388932;19;20153;-71
2022/04/26 14:30:06;;;;;;;1.90;1.70;;;14.20;99.90;;;;;;7403861;19;20150;-71
2022/04/26 14:32:32;;;;;;;2.67;1.50;;;14.30;99.90;;;;;;7390664;19;20146;-72
2022/04/26 14:34:58;;;;;;;2.20;2.00;;;14.30;99.90;;;;;;7391216;19;20127;-80
2022/04/26 14:37:24;;;;;;;1.70;1.60;;;14.30;99.90;;;;;;7390261;19;20637;-78
2022/04/26 14:39:50;;;;;;;4.07;2.13;;;14.10;99.90;;;;;;7391126;19;20142;-73
2022/04/26 14:42:17;;;;;;;3.03;2.00;;;14.20;99.90;;;;;;7388958;19;20142;-78
2022/04/26 14:44:44;;;;;;;2.00;1.77;;;14.20;99.90;;;;;;7390504;19;20146;-73
2022/04/26 14:47:12;;;;;;;2.30;1.75;;;13.90;99.90;;;;;;7391931;19;20766;-72
2022/04/26 14:49:38;;;;;;;2.65;1.98;;;14.20;99.90;;;;;;7391312;19;20146;-71
2022/04/26 14:52:04;;;;;;;2.22;1.95;;;14.40;99.90;;;;;;7390914;19;20395;-72
2022/04/26 14:54:30;;;;;;;3.37;2.00;;;14.60;99.90;;;;;;7389633;19;20138;-71
2022/04/26 14:56:56;;;;;;;1.97;1.50;;;14.40;99.90;;;;;;7388853;19;20134;-74
2022/04/26 14:59:22;;;;;;;2.03;1.50;;;14.40;99.90;;;;;;7390804;19;20133;-71
2022/04/26 15:01:49;;;;;;;1.83;1.70;;;14.50;99.90;;;;;;7387893;19;20478;-78
2022/04/26 15:04:17;;;;;;;2.00;1.47;;;14.50;99.90;;;;;;7391127;19;20138;-71
2022/04/26 15:06:43;;;;;;;2.58;1.67;;;14.50;99.90;;;;;;7391579;19;20149;-77
2022/04/26 15:17:24;;;;;;;3.30;1.97;;;14.40;99.90;;;;;;7388611;19;20684;-76
2022/04/26 15:19:51;;;;;;;2.65;1.90;;;14.40;99.90;;;;;;7386864;19;20154;-72
2022/04/26 15:22:19;;;;;;;1.93;1.67;;;14.30;99.90;;;;;;7385995;19;20167;-78
2022/04/26 15:24:48;;;;;;;1.87;1.70;;;14.20;99.90;;;;;;7388221;19;20142;-72
2022/04/26 15:27:15;;;;;;;2.67;1.70;;;14.10;99.90;;;;;;7385306;19;20142;-72
2022/04/26 15:29:42;;;;;;;2.13;1.45;;;14.10;99.90;;;;;;7388308;19;20142;-73
2022/04/26 15:32:09;;;;;;;1.53;1.43;;;14.00;99.90;;;;;;7390511;19;20470;-77
2022/04/26 15:34:35;;;;;;;1.80;1.70;;;13.80;99.90;;;;;;7388776;19;20457;-77
2022/04/26 15:37:01;;;;;;;2.10;1.67;;;13.90;99.90;;;;;;7386274;19;20143;-73
2022/04/26 15:39:28;;;;;;;2.57;1.90;;;14.10;99.90;;;;;;7385452;19;20176;-72
2022/04/26 15:41:55;;;;;;;2.07;1.50;;;14.00;99.90;;;;;;7384095;19;20694;-73
2022/04/26 15:44:21;;;;;;;4.20;2.13;;;13.90;99.90;;;;;;7385844;19;20150;-77
2022/04/26 15:46:48;;;;;;;3.30;1.83;;;13.80;99.90;;;;;;7387829;19;20127;-76
2022/04/26 15:49:14;;;;;;;4.93;2.37;;;13.70;99.90;;;;;;7386847;19;20182;-75
2022/04/26 15:51:44;;;;;;;3.60;2.73;;;13.60;99.90;;;;;;7388970;19;20151;-74
2022/04/26 15:54:10;;;;;;;4.20;2.77;;;13.50;99.90;;;;;;7386030;19;20146;-75
2022/04/26 15:56:36;;;;;;;2.60;2.20;;;13.40;99.90;;;;;;7388160;19;20163;-72
2022/04/26 15:59:02;;;;;;;2.87;2.20;;;13.40;99.90;;;;;;7390043;19;20601;-79
2022/04/26 16:01:28;;;;;;;3.17;1.97;;;13.10;99.90;;;;;;7386412;19;20788;-72
2022/04/26 16:03:54;;;;;;;1.90;1.77;;;13.10;99.90;;;;;;7384991;19;20560;-73
2022/04/26 16:06:20;;;;;;;3.47;2.58;;;13.20;99.90;;;;;;7384330;19;20465;-75
2022/04/26 16:08:46;;;;;;;2.43;1.97;;;13.20;99.90;;;;;;7388795;19;20617;-75
2022/04/26 16:22:10;;;;;;;2.07;1.87;;;13.50;99.90;;;;;;7386230;19;20150;-75
2022/04/26 16:24:38;;;;;;;2.00;1.80;;;13.40;99.90;;;;;;7386087;19;20138;-73
2022/04/26 16:27:10;;;;;;;4.13;1.80;;;13.30;99.90;;;;;;7385735;19;20154;-79
2022/04/26 16:29:36;;;;;;;2.10;1.77;;;13.20;99.90;;;;;;7382576;19;20748;-77
2022/04/26 16:32:02;;;;;;;2.87;2.00;;;13.10;99.90;;;;;;7387986;19;20153;-74
2022/04/26 16:34:29;;;;;;;2.37;1.80;;;13.10;99.90;;;;;;7386498;19;20250;-76
2022/04/26 16:36:55;;;;;;;1.95;1.58;;;13.10;99.90;;;;;;7384979;19;20139;-72
2022/04/26 16:39:21;;;;;;;2.17;1.40;;;13.00;99.90;;;;;;7386226;19;20190;-72
2022/04/26 16:41:47;;;;;;;1.63;1.50;;;13.00;99.90;;;;;;7386366;19;20130;-77
2022/04/26 16:44:13;;;;;;;1.63;1.53;;;13.10;99.90;;;;;;7386117;19;20127;-73
2022/04/26 16:46:38;;;;;;;3.10;1.63;;;13.20;99.90;;;;;;7387924;19;20174;-74
2022/04/26 16:49:04;;;;;;;3.63;1.67;;;13.20;99.90;;;;;;7382979;19;20139;-73
2022/04/26 16:51:32;;;;;;;2.60;1.70;;;13.20;99.90;;;;;;7383349;19;20139;-73
2022/04/26 16:53:58;;;;;;;1.77;1.30;;;13.00;99.90;;;;;;7383877;19;20158;-72
2022/04/26 16:56:26;;;;;;;2.23;1.50;;;12.90;99.90;;;;;;7386605;19;20470;-76
2022/04/26 16:58:51;;;;;;;1.93;1.40;;;12.70;99.90;;;;;;7385904;19;20130;-73
2022/04/26 17:01:17;;;;;;;2.10;1.30;;;12.60;99.90;;;;;;7386704;19;20235;-78
2022/04/26 17:03:43;;;;;;;1.60;1.43;;;12.60;99.90;;;;;;7386196;19;20157;-78
2022/04/26 17:06:11;;;;;;;1.40;1.23;;;12.50;99.90;;;;;;7386977;19;20134;-75
2022/04/26 17:08:37;;;;;;;1.20;1.10;;;12.60;99.90;;;;;;7382288;19;20131;-76
2022/04/26 17:13:47;;;;;;;1.53;1.30;;;12.40;99.90;;;;;;7386111;19;20146;-73
2022/04/26 17:16:14;;;;;;;2.43;1.60;;;12.40;99.90;;;;;;7386137;19;20186;-72